Time;durP1;ratioP1;P1;durP2;ratioP2;P2;SDS_P1;SDS_P2;PMS_P1;PMS_P2;Temp;Humidity;BMP_temperature;BMP_pressure;BME280_temperature;BME280_humidity;BME280_pressure;Samples;Min_cycle;Max_cycle;Signal;HPM_P1;HPM_P2
2023/06/08 00:02:35;;;;;;;3.03;2.03;;;;;;;10.69;64.75;96761.16;6281307;28;20153;-65
2023/06/08 00:05:46;;;;;;;2.80;1.92;;;;;;;10.69;64.76;96768.22;6284951;28;20053;-65
2023/06/08 00:08:50;;;;;;;2.08;1.60;;;;;;;10.66;65.04;96773.69;6283566;28;20036;-65
2023/06/08 00:11:55;;;;;;;;;;;;;;;10.61;65.00;96781.88;6281397;28;20501;-66
2023/06/08 00:14:59;;;;;;;1.77;1.55;;;;;;;10.56;65.05;96773.47;6286213;28;19916;-65
2023/06/08 00:18:03;;;;;;;3.28;2.38;;;;;;;10.68;65.25;96788.41;6286758;28;20048;-65
2023/06/08 00:21:12;;;;;;;5.10;2.25;;;;;;;10.70;65.49;96791.81;6283205;28;20734;-65
2023/06/08 00:24:21;;;;;;;3.20;2.28;;;;;;;10.74;65.30;96788.00;6282897;28;20041;-65
2023/06/08 00:27:27;;;;;;;3.10;1.85;;;;;;;10.85;65.24;96791.72;6280198;28;20504;-65
2023/06/08 00:30:31;;;;;;;3.20;2.17;;;;;;;11.00;65.08;96793.31;6280607;28;20043;-66
2023/06/08 00:33:34;;;;;;;;;;;;;;;11.04;64.63;96783.41;6284807;28;20522;-64
2023/06/08 00:36:40;;;;;;;2.38;1.73;;;;;;;11.18;64.52;96783.31;6291277;28;19929;-66
2023/06/08 00:39:41;;;;;;;1.52;1.42;;;;;;;11.27;64.57;96789.75;6288429;28;20044;-65
2023/06/08 00:42:42;;;;;;;2.80;1.40;;;;;;;11.32;64.47;96787.63;6288152;28;20431;-65
2023/06/08 00:45:47;;;;;;;1.90;1.70;;;;;;;11.46;64.09;96795.41;6287957;28;20048;-66
2023/06/08 00:48:58;;;;;;;1.58;1.48;;;;;;;11.62;63.58;96796.03;6290399;28;20205;-65
2023/06/08 00:52:01;;;;;;;2.42;1.52;;;;;;;11.67;63.19;96799.19;6282674;28;20186;-65
2023/06/08 00:55:06;;;;;;;2.17;1.70;;;;;;;11.70;63.33;96803.41;6288434;28;20040;-64
2023/06/08 00:58:13;;;;;;;3.95;1.40;;;;;;;11.72;63.00;96793.59;6288087;28;20051;-66
2023/06/08 01:01:17;;;;;;;2.15;1.50;;;;;;;11.80;62.89;96803.59;6283417;28;20074;-65
2023/06/08 01:04:26;;;;;;;2.22;1.40;;;;;;;11.96;62.37;96812.13;6289225;28;20040;-65
2023/06/08 01:07:49;;;;;;;2.38;1.30;;;;;;;11.98;62.14;96799.69;6286289;28;20136;-65
2023/06/08 01:11:12;;;;;;;2.17;1.77;;;;;;;12.11;61.95;96818.09;6289517;28;20087;-65
2023/06/08 01:14:35;;;;;;;2.67;1.55;;;;;;;12.20;61.66;96827.13;6285515;28;20041;-66
2023/06/08 01:17:45;;;;;;;2.90;1.52;;;;;;;12.27;61.66;96829.22;6288023;28;20577;-66
2023/06/08 01:21:08;;;;;;;2.70;1.70;;;;;;;12.36;61.57;96833.00;6288254;28;20057;-65
2023/06/08 01:24:19;;;;;;;1.98;1.88;;;;;;;12.49;61.17;96831.16;6285558;28;20653;-65
2023/06/08 01:27:32;;;;;;;2.25;2.05;;;;;;;12.54;61.06;96826.38;6281600;28;20048;-65
2023/06/08 01:30:35;;;;;;;4.30;2.13;;;;;;;12.57;61.18;96830.59;6288908;28;20131;-65
2023/06/08 01:33:40;;;;;;;3.15;1.67;;;;;;;12.66;60.87;96840.47;6282426;28;20177;-65
2023/06/08 01:36:51;;;;;;;4.43;2.13;;;;;;;12.76;60.92;96838.81;6285096;28;20540;-65
2023/06/08 01:40:26;;;;;;;1.83;1.58;;;;;;;12.87;61.21;96843.31;6285882;28;20043;-66
2023/06/08 01:43:30;;;;;;;2.38;1.70;;;;;;;12.88;61.04;96839.72;6282461;28;20044;-65
2023/06/08 01:46:34;;;;;;;3.22;2.00;;;;;;;12.94;61.24;96843.72;6290207;28;20036;-65
2023/06/08 01:49:37;;;;;;;4.95;1.90;;;;;;;13.02;61.02;96846.59;6274567;28;20219;-65
2023/06/08 01:52:43;;;;;;;2.65;1.77;;;;;;;13.15;60.71;96841.25;6286751;28;20036;-65
2023/06/08 01:55:49;;;;;;;3.10;2.00;;;;;;;13.18;60.42;96841.00;6287304;28;20049;-65
2023/06/08 01:58:56;;;;;;;3.03;2.10;;;;;;;13.19;60.38;96840.03;6286136;28;20040;-65
2023/06/08 02:01:57;;;;;;;3.97;2.08;;;;;;;13.37;59.82;96838.69;6291227;28;20036;-65
2023/06/08 02:05:02;;;;;;;4.38;2.17;;;;;;;13.43;59.67;96840.84;6285214;28;20059;-65
2023/06/08 02:08:07;;;;;;;4.30;2.45;;;;;;;13.51;59.68;96847.38;6268318;28;20044;-65
2023/06/08 02:11:10;;;;;;;4.78;1.92;;;;;;;13.57;59.28;96841.59;6284169;28;20048;-65
2023/06/08 02:14:15;;;;;;;2.17;1.98;;;;;;;13.68;58.84;96844.25;6285601;28;20512;-65
2023/06/08 02:17:18;;;;;;;;;;;;;;;13.72;58.73;96850.97;6287449;28;20060;-66
2023/06/08 02:20:22;;;;;;;3.75;1.85;;;;;;;13.80;58.98;96848.56;6284693;28;19927;-66
2023/06/08 02:23:23;;;;;;;2.53;1.80;;;;;;;13.86;59.34;96861.31;6284581;28;20127;-65
2023/06/08 02:26:24;;;;;;;2.08;1.83;;;;;;;13.91;59.37;96855.66;6288579;28;20067;-66
2023/06/08 02:29:28;;;;;;;;;;;;;;;14.03;58.81;96864.44;6285089;28;20040;-65
2023/06/08 02:32:34;;;;;;;3.65;1.83;;;;;;;14.08;57.71;96857.81;6288773;28;20346;-66
2023/06/08 02:35:39;;;;;;;3.83;1.90;;;;;;;14.26;57.12;96855.50;6283088;28;20169;-65
2023/06/08 02:38:43;;;;;;;2.67;1.40;;;;;;;14.32;56.86;96854.19;6281945;28;20186;-66
2023/06/08 02:41:47;;;;;;;2.40;1.73;;;;;;;14.46;56.50;96861.00;6281266;28;20049;-65
2023/06/08 02:44:50;;;;;;;;;;;;;;;14.54;56.24;96859.47;6284583;28;20045;-65
2023/06/08 02:47:52;;;;;;;1.95;1.73;;;;;;;14.55;56.40;96850.56;6286407;28;20428;-65
2023/06/08 02:50:56;;;;;;;3.58;2.17;;;;;;;14.68;56.07;96853.03;6285664;28;20135;-65
2023/06/08 02:53:57;;;;;;;2.88;1.60;;;;;;;14.81;55.43;96856.38;6280136;28;20452;-65
2023/06/08 02:57:01;;;;;;;;;;;;;;;14.94;55.13;96855.34;6284285;28;20496;-65
2023/06/08 03:00:07;;;;;;;2.35;2.15;;;;;;;14.99;54.54;96851.34;6284482;28;19924;-66
2023/06/08 03:03:08;;;;;;;3.88;1.60;;;;;;;15.08;54.25;96852.41;6278491;28;20044;-65
2023/06/08 03:06:12;;;;;;;3.28;2.10;;;;;;;15.21;53.91;96861.00;6278347;28;20057;-65
2023/06/08 03:09:13;;;;;;;3.00;1.42;;;;;;;15.26;53.94;96860.63;6278460;28;20781;-65
2023/06/08 03:12:18;;;;;;;3.22;1.42;;;;;;;15.39;53.46;96852.47;6280710;28;20036;-65
2023/06/08 03:15:22;;;;;;;2.13;1.50;;;;;;;15.54;53.03;96853.84;6283330;28;20044;-65
2023/06/08 03:18:24;;;;;;;1.55;1.42;;;;;;;15.61;52.92;96852.34;6280731;28;20338;-65
2023/06/08 03:21:31;;;;;;;2.95;1.40;;;;;;;15.67;52.54;96853.63;6277796;28;20145;-65
2023/06/08 03:24:36;;;;;;;45.50;25.63;;;;;;;15.79;51.76;96857.06;6280161;28;20537;-66
2023/06/08 03:27:42;;;;;;;4.40;2.97;;;;;;;15.85;51.00;96851.22;6284560;28;20040;-65
2023/06/08 03:30:48;;;;;;;2.63;1.80;;;;;;;15.92;50.64;96857.69;6278488;28;20033;-66
2023/06/08 03:33:52;;;;;;;3.60;1.67;;;;;;;15.93;50.19;96840.78;6277419;28;20115;-65
2023/06/08 03:36:58;;;;;;;4.70;1.75;;;;;;;15.94;49.16;96829.22;6284277;28;20040;-66
2023/06/08 03:40:06;;;;;;;3.08;1.30;;;;;;;16.22;48.72;96858.63;6278864;28;20063;-65
2023/06/08 03:43:07;;;;;;;2.65;1.52;;;;;;;16.33;48.57;96863.84;6275699;28;20041;-65
2023/06/08 03:46:11;;;;;;;2.30;1.77;;;;;;;16.38;48.13;96862.44;6285317;28;20149;-65
2023/06/08 03:49:17;;;;;;;3.03;1.45;;;;;;;16.44;47.59;96863.72;6285126;28;20480;-68
2023/06/08 03:52:21;;;;;;;2.08;1.40;;;;;;;16.54;46.91;96864.59;6277926;28;20052;-66
2023/06/08 03:55:23;;;;;;;1.73;1.58;;;;;;;16.59;46.74;96858.88;6277341;28;20151;-66
2023/06/08 03:58:25;;;;;;;1.23;1.13;;;;;;;16.74;46.24;96864.63;6280640;28;20052;-65
2023/06/08 04:01:30;;;;;;;1.55;1.17;;;;;;;16.85;46.01;96861.88;6282506;28;20036;-65
2023/06/08 04:04:31;;;;;;;1.45;1.20;;;;;;;16.96;45.14;96864.41;6280546;28;20128;-65
2023/06/08 04:07:34;;;;;;;1.73;1.23;;;;;;;17.02;44.98;96863.84;6284328;28;20041;-65
2023/06/08 04:10:35;;;;;;;2.20;1.48;;;;;;;17.08;44.70;96862.44;6280141;28;20036;-65
2023/06/08 04:13:40;;;;;;;4.30;1.20;;;;;;;17.18;44.51;96873.06;6285966;28;20037;-65
2023/06/08 04:16:44;;;;;;;3.63;1.30;;;;;;;17.32;43.07;96864.66;6282583;28;20033;-65
2023/06/08 04:19:47;;;;;;;1.52;1.25;;;;;;;17.42;42.74;96865.50;6282761;28;20086;-64
2023/06/08 04:22:48;;;;;;;;;;;;;;;17.50;43.20;96862.97;6280918;28;20083;-66
2023/06/08 04:25:58;;;;;;;2.63;1.65;;;;;;;17.47;43.11;96852.59;6284936;28;19924;-66
2023/06/08 04:29:03;;;;;;;1.67;1.30;;;;;;;17.58;42.95;96858.72;6286549;28;20052;-66
2023/06/08 04:32:05;;;;;;;2.65;1.48;;;;;;;17.70;42.34;96862.94;6278800;28;20431;-65
2023/06/08 04:35:09;;;;;;;1.70;1.23;;;;;;;17.85;41.55;96871.31;6284486;28;20048;-65
2023/06/08 04:38:14;;;;;;;2.08;1.15;;;;;;;17.92;41.29;96870.59;6286106;28;20097;-66
2023/06/08 04:41:18;;;;;;;2.60;1.40;;;;;;;18.10;41.43;96867.16;6285568;28;20050;-64
2023/06/08 04:44:20;;;;;;;1.23;1.10;;;;;;;19.70;38.23;96863.81;6289134;28;20047;-65
2023/06/08 04:47:23;;;;;;;1.60;1.10;;;;;;;22.51;33.62;96875.63;6285026;28;20041;-65
2023/06/08 04:50:27;;;;;;;1.10;0.90;;;;;;;25.61;29.74;96877.03;6283425;28;20037;-67
2023/06/08 04:53:33;;;;;;;1.73;0.98;;;;;;;27.56;26.67;96875.97;6280375;28;20032;-65
2023/06/08 04:56:38;;;;;;;1.83;1.25;;;;;;;29.57;24.50;96882.53;6279202;28;20036;-65
2023/06/08 04:59:40;;;;;;;1.35;0.90;;;;;;;32.01;22.11;96893.53;6287411;28;20041;-65
2023/06/08 05:02:42;;;;;;;2.05;1.08;;;;;;;34.29;19.64;96886.63;6281839;28;20407;-66
2023/06/08 05:05:46;;;;;;;1.48;1.02;;;;;;;36.20;17.84;96889.38;6282252;28;20442;-64
2023/06/08 05:08:48;;;;;;;1.88;1.00;;;;;;;38.17;15.89;96898.91;6280609;28;20407;-65
2023/06/08 05:11:57;;;;;;;1.00;0.80;;;;;;;40.00;14.03;96890.22;6283036;28;20036;-65
2023/06/08 05:15:00;;;;;;;1.48;0.65;;;;;;;41.93;13.14;96889.91;6287000;28;20055;-66
2023/06/08 05:18:07;;;;;;;2.78;0.70;;;;;;;43.20;11.77;96890.63;6285658;28;20488;-66
2023/06/08 05:21:11;;;;;;;0.45;0.45;;;;;;;43.12;11.04;96883.03;6288185;28;20045;-65
2023/06/08 05:24:16;;;;;;;0.63;0.45;;;;;;;43.97;10.41;96886.97;6288781;28;20032;-65
2023/06/08 05:27:20;;;;;;;1.05;0.50;;;;;;;45.21;9.34;96886.16;6283166;28;20531;-66
2023/06/08 05:30:23;;;;;;;1.60;0.60;;;;;;;45.60;9.19;96886.38;6285150;28;20053;-66
2023/06/08 05:33:27;;;;;;;1.30;0.65;;;;;;;45.98;8.97;96880.16;6283625;28;20472;-65
2023/06/08 05:36:28;;;;;;;1.02;0.88;;;;;;;46.93;8.48;96893.03;6287698;28;20128;-66
2023/06/08 05:39:35;;;;;;;1.27;0.60;;;;;;;46.60;8.21;96874.16;6287269;28;20067;-71
2023/06/08 05:42:40;;;;;;;0.63;0.60;;;;;;;47.22;8.06;96893.06;6285484;28;20059;-70
2023/06/08 05:45:43;;;;;;;0.70;0.63;;;;;;;47.80;7.88;96890.53;6286822;28;20040;-71
2023/06/08 05:48:52;;;;;;;1.15;0.80;;;;;;;47.33;7.72;96885.09;6284314;28;20045;-72
2023/06/08 05:51:55;;;;;;;2.35;0.70;;;;;;;45.48;8.19;96878.66;6283626;28;20131;-72
2023/06/08 05:55:01;;;;;;;1.25;0.88;;;;;;;45.09;8.27;96874.00;6287609;28;20041;-71
2023/06/08 05:58:11;;;;;;;9.00;7.88;;;;;;;44.47;9.04;96861.81;6283678;28;20510;-71
2023/06/08 06:01:19;;;;;;;1.90;0.85;;;;;;;44.96;8.26;96868.25;6286856;28;20049;-71
2023/06/08 06:04:22;;;;;;;1.73;0.90;;;;;;;44.35;8.75;96864.38;6287944;28;20131;-70
2023/06/08 06:07:27;;;;;;;2.70;0.80;;;;;;;44.02;9.03;96872.97;6268589;28;20043;-71
2023/06/08 06:10:32;;;;;;;1.27;0.80;;;;;;;43.20;9.33;96874.84;6289007;28;20048;-70
2023/06/08 06:13:37;;;;;;;1.13;0.75;;;;;;;40.47;10.84;96861.94;6284173;28;20395;-70
2023/06/08 06:16:42;;;;;;;1.40;0.95;;;;;;;41.22;10.64;96855.00;6290171;28;20056;-70
2023/06/08 06:19:47;;;;;;;1.10;1.00;;;;;;;39.55;11.75;96862.72;6291395;28;20202;-70
2023/06/08 06:22:54;;;;;;;1.48;1.05;;;;;;;36.12;13.49;96843.34;6285627;28;20432;-70
2023/06/08 06:25:59;;;;;;;1.85;0.93;;;;;;;38.00;12.69;96843.44;6284561;28;20067;-69
2023/06/08 06:29:06;;;;;;;3.30;1.40;;;;;;;41.25;11.10;96849.72;6285135;28;20507;-70
2023/06/08 06:32:08;;;;;;;5.80;1.77;;;;;;;43.70;9.80;96860.97;6282849;28;20045;-70
2023/06/08 06:35:12;;;;;;;3.65;1.10;;;;;;;43.14;9.97;96856.69;6289492;28;20040;-69
2023/06/08 06:38:17;;;;;;;0.93;0.82;;;;;;;43.27;9.66;96853.09;6280025;28;20056;-71
2023/06/08 06:41:20;;;;;;;0.75;0.70;;;;;;;44.09;9.09;96862.25;6284905;28;20037;-69
2023/06/08 06:44:28;;;;;;;2.40;1.23;;;;;;;44.78;8.81;96863.78;6283984;28;20445;-71
2023/06/08 06:47:34;;;;;;;1.13;0.90;;;;;;;43.81;8.94;96855.19;6285177;28;20233;-71
2023/06/08 06:50:42;;;;;;;1.17;0.73;;;;;;;40.08;10.90;96842.75;6285274;28;20040;-70
2023/06/08 06:53:47;;;;;;;1.77;1.00;;;;;;;40.85;10.90;96828.97;6279871;28;20735;-70
2023/06/08 06:56:50;;;;;;;1.85;1.15;;;;;;;43.10;10.09;96841.81;6286359;28;20052;-69
2023/06/08 06:59:58;;;;;;;1.38;1.00;;;;;;;44.22;8.70;96834.75;6285114;28;20040;-70
2023/06/08 07:03:06;;;;;;;1.75;1.20;;;;;;;43.45;9.75;96842.97;6283950;28;20052;-70
2023/06/08 07:06:07;;;;;;;2.25;1.00;;;;;;;38.91;11.59;96825.09;6284431;28;20123;-70
2023/06/08 07:09:16;;;;;;;2.05;1.08;;;;;;;38.71;12.14;96824.03;6284236;28;20044;-70
2023/06/08 07:12:18;;;;;;;2.03;1.10;;;;;;;39.79;11.18;96823.44;6284547;28;20056;-70
2023/06/08 07:15:19;;;;;;;;;;;;;;;37.66;12.61;96824.75;6283794;28;20047;-70
2023/06/08 07:18:27;;;;;;;2.33;0.93;;;;;;;32.68;15.93;96800.53;6279641;28;20346;-69
2023/06/08 07:21:31;;;;;;;1.35;1.10;;;;;;;30.27;18.24;96796.38;6282033;28;20040;-68
2023/06/08 07:24:40;;;;;;;1.92;1.67;;;;;;;29.39;18.94;96805.50;6263595;28;20032;-68
2023/06/08 07:27:44;;;;;;;2.33;1.65;;;;;;;28.31;20.20;96799.97;6288701;28;21012;-68
2023/06/08 07:30:52;;;;;;;2.08;1.65;;;;;;;27.43;21.46;96800.28;6286757;28;20454;-68
2023/06/08 07:33:54;;;;;;;1.60;1.50;;;;;;;29.21;20.21;96805.41;6284383;28;20124;-67
2023/06/08 07:37:01;;;;;;;3.45;1.50;;;;;;;33.75;16.33;96816.16;6286092;28;20040;-68
2023/06/08 07:40:08;;;;;;;1.50;1.27;;;;;;;36.00;14.71;96815.25;6283382;28;20044;-69
2023/06/08 07:43:15;;;;;;;1.48;1.00;;;;;;;39.02;12.36;96826.69;6285713;28;20040;-69
2023/06/08 07:46:18;;;;;;;2.60;1.40;;;;;;;40.01;11.29;96820.22;6283631;28;20299;-69
2023/06/08 07:49:21;;;;;;;2.65;1.42;;;;;;;37.15;13.26;96813.69;6284911;28;20507;-69
2023/06/08 07:52:24;;;;;;;2.97;1.25;;;;;;;34.49;15.17;96814.25;6279167;28;20052;-68
2023/06/08 07:55:31;;;;;;;2.92;1.52;;;;;;;32.24;16.85;96799.31;6280524;28;20044;-69
2023/06/08 07:58:33;;;;;;;2.15;1.60;;;;;;;30.01;19.14;96802.03;6284273;28;20043;-70
2023/06/08 08:01:36;;;;;;;2.70;2.00;;;;;;;28.39;20.79;96787.06;6283234;28;20045;-69
2023/06/08 08:04:41;;;;;;;3.00;1.60;;;;;;;27.47;21.87;96782.63;6282508;28;20525;-67
2023/06/08 08:07:43;;;;;;;1.70;1.38;;;;;;;30.66;18.97;96786.09;6287435;28;20033;-67
2023/06/08 08:10:49;;;;;;;2.85;1.65;;;;;;;34.76;15.22;96797.91;6285537;28;20032;-67
2023/06/08 08:13:57;;;;;;;2.33;1.40;;;;;;;37.64;12.75;96791.25;6284602;28;20056;-67
2023/06/08 08:16:58;;;;;;;2.45;1.17;;;;;;;39.77;11.92;96806.38;6285425;28;20060;-67
2023/06/08 08:20:00;;;;;;;1.95;1.38;;;;;;;38.16;12.69;96806.56;6285467;28;20125;-67
2023/06/08 08:23:01;;;;;;;4.25;1.00;;;;;;;35.06;14.32;96789.25;6281037;28;20060;-67
2023/06/08 08:26:08;;;;;;;2.47;1.30;;;;;;;32.81;16.29;96780.34;6282569;28;20040;-67
2023/06/08 08:29:09;;;;;;;3.53;2.35;;;;;;;30.63;18.39;96775.66;6283434;28;20055;-68
2023/06/08 08:32:18;;;;;;;2.42;1.55;;;;;;;29.30;19.67;96780.56;6283250;28;20045;-68
2023/06/08 08:35:28;;;;;;;2.17;1.52;;;;;;;28.28;20.65;96765.22;6284869;28;20040;-68
2023/06/08 08:38:32;;;;;;;4.93;1.67;;;;;;;27.84;21.37;96761.41;6285287;28;20076;-68
2023/06/08 08:41:40;;;;;;;2.15;1.60;;;;;;;27.83;21.69;96757.03;6285329;28;20066;-67
2023/06/08 08:44:49;;;;;;;2.90;2.08;;;;;;;27.65;21.78;96753.09;6284221;28;20052;-67
2023/06/08 08:47:53;;;;;;;3.53;1.65;;;;;;;27.88;22.20;96759.94;6278996;28;20053;-66
2023/06/08 08:50:57;;;;;;;2.22;1.90;;;;;;;28.57;21.90;96763.91;6279864;28;20057;-67
2023/06/08 08:54:03;;;;;;;2.13;1.52;;;;;;;28.11;22.27;96754.91;6279120;28;20045;-68
2023/06/08 08:57:08;;;;;;;3.25;1.98;;;;;;;27.57;22.85;96752.47;6279163;28;20048;-66
2023/06/08 09:00:10;;;;;;;1.88;1.40;;;;;;;27.24;22.62;96745.22;6281374;28;20055;-67
2023/06/08 09:03:12;;;;;;;1.95;1.40;;;;;;;27.14;23.19;96740.19;6292206;28;20033;-68
2023/06/08 09:06:21;;;;;;;1.67;1.13;;;;;;;26.76;23.17;96743.50;6280115;28;20048;-65
2023/06/08 09:09:27;;;;;;;1.48;1.23;;;;;;;26.40;23.56;96747.28;6288920;28;20664;-64
2023/06/08 09:12:42;;;;;;;2.63;2.10;;;;;;;25.85;24.21;96742.91;6285675;28;20044;-63
2023/06/08 09:15:46;;;;;;;2.10;1.75;;;;;;;25.46;25.16;96745.09;6291573;28;20037;-62
2023/06/08 09:19:05;;;;;;;6.15;2.47;;;;;;;25.03;25.35;96738.94;6289796;28;20037;-61
2023/06/08 09:22:26;;;;;;;4.00;2.45;;;;;;;24.80;26.20;96733.75;6289381;28;20110;-62
2023/06/08 09:25:38;;;;;;;3.35;2.33;;;;;;;24.77;25.63;96739.50;6290372;28;20045;-63
2023/06/08 09:28:42;;;;;;;3.45;1.95;;;;;;;24.75;25.81;96733.50;6289543;28;20480;-63
2023/06/08 09:31:50;;;;;;;3.63;1.98;;;;;;;24.94;25.24;96738.25;6281662;28;21217;-62
2023/06/08 09:35:03;;;;;;;2.35;2.10;;;;;;;25.24;25.27;96740.78;6284474;28;20068;-62
2023/06/08 09:38:20;;;;;;;2.58;1.83;;;;;;;27.48;22.48;96749.16;6284686;28;20492;-63
2023/06/08 09:41:22;;;;;;;2.25;1.60;;;;;;;29.79;19.60;96745.53;6283474;28;20048;-63
2023/06/08 09:44:27;;;;;;;2.50;1.83;;;;;;;31.14;18.39;96749.06;6280854;28;20458;-64
2023/06/08 09:47:28;;;;;;;2.83;1.40;;;;;;;31.93;18.05;96746.91;6289766;28;20050;-64
2023/06/08 09:50:30;;;;;;;1.45;1.23;;;;;;;32.90;17.21;96743.47;6287586;28;20060;-64
2023/06/08 09:53:33;;;;;;;1.90;1.70;;;;;;;32.31;17.49;96740.13;6287074;28;20044;-63
2023/06/08 09:56:38;;;;;;;2.60;1.77;;;;;;;30.11;18.68;96745.38;6287106;28;20431;-63
2023/06/08 09:59:46;;;;;;;3.50;1.45;;;;;;;28.01;20.54;96729.34;6289335;28;20044;-63
2023/06/08 10:03:16;;;;;;;2.17;1.63;;;;;;;27.01;21.91;96726.72;6283135;28;20135;-64
2023/06/08 10:06:21;;;;;;;4.03;1.60;;;;;;;27.26;22.11;96724.22;6290443;28;20040;-64
2023/06/08 10:09:29;;;;;;;2.58;1.88;;;;;;;28.40;21.03;96736.47;6288050;28;20049;-63
2023/06/08 10:12:33;;;;;;;3.53;1.70;;;;;;;27.86;22.03;96729.59;6288004;28;20132;-63
2023/06/08 10:15:38;;;;;;;2.75;1.42;;;;;;;27.01;23.09;96732.09;6287859;28;20131;-62
2023/06/08 10:18:43;;;;;;;3.97;1.73;;;;;;;26.47;23.90;96719.50;6285518;28;20459;-63
2023/06/08 10:21:49;;;;;;;1.83;1.63;;;;;;;27.42;22.92;96734.59;6284741;28;20036;-63
2023/06/08 10:24:54;;;;;;;6.88;2.28;;;;;;;29.50;20.43;96725.34;6288879;28;20048;-63
2023/06/08 10:28:03;;;;;;;4.35;1.67;;;;;;;31.32;18.79;96738.13;6281728;28;20049;-63
2023/06/08 10:31:40;;;;;;;2.65;1.83;;;;;;;32.29;17.54;96725.91;6287127;28;20041;-63
2023/06/08 10:34:42;;;;;;;3.00;1.83;;;;;;;32.14;17.41;96724.53;6260506;28;20041;-64
2023/06/08 10:37:45;;;;;;;1.93;1.20;;;;;;;31.60;17.84;96734.75;6285410;28;20041;-62
2023/06/08 10:40:50;;;;;;;3.33;1.77;;;;;;;31.36;17.01;96728.44;6284750;28;20496;-63
2023/06/08 10:44:00;;;;;;;2.08;1.50;;;;;;;31.86;17.17;96716.28;6288328;28;20049;-64
2023/06/08 10:47:06;;;;;;;1.73;1.30;;;;;;;32.18;16.59;96720.25;6283174;28;20555;-63
2023/06/08 10:50:17;;;;;;;2.72;1.60;;;;;;;31.41;17.32;96692.41;6289992;28;20048;-64
2023/06/08 10:53:38;;;;;;;2.28;1.80;;;;;;;30.86;18.75;96717.94;6288112;28;20126;-64
2023/06/08 10:56:47;;;;;;;5.20;2.05;;;;;;;29.43;20.19;96714.53;6283752;28;20051;-64
2023/06/08 10:59:54;;;;;;;4.43;2.45;;;;;;;28.37;20.97;96716.06;6285129;28;20036;-63
2023/06/08 11:03:01;;;;;;;4.97;2.17;;;;;;;28.47;21.51;96717.50;6283240;28;20136;-64
2023/06/08 11:06:13;;;;;;;1.95;1.67;;;;;;;29.20;20.74;96715.16;6283586;28;20036;-64
2023/06/08 11:09:16;;;;;;;3.70;1.73;;;;;;;29.72;20.06;96717.63;6281951;28;20054;-65
2023/06/08 11:12:19;;;;;;;2.10;1.60;;;;;;;30.06;19.82;96718.09;6287651;28;20041;-64
2023/06/08 11:15:27;;;;;;;3.05;1.73;;;;;;;29.45;20.70;96717.88;6284982;28;20072;-63
2023/06/08 11:18:30;;;;;;;3.10;1.80;;;;;;;29.58;20.12;96716.06;6285099;28;20592;-62
2023/06/08 11:21:35;;;;;;;1.63;1.25;;;;;;;29.82;19.24;96707.09;6281812;28;20045;-63
2023/06/08 11:24:41;;;;;;;1.50;1.38;;;;;;;29.85;19.81;96703.09;6283323;28;20032;-62
2023/06/08 11:27:44;;;;;;;1.70;1.30;;;;;;;29.98;18.99;96705.69;6283028;28;20048;-63
2023/06/08 11:30:48;;;;;;;1.85;1.15;;;;;;;29.80;18.51;96703.78;6281071;28;20525;-61
2023/06/08 11:33:56;;;;;;;2.75;1.85;;;;;;;29.66;19.61;96702.25;6285133;28;20462;-62
2023/06/08 11:37:03;;;;;;;2.63;1.50;;;;;;;29.45;19.77;96696.19;6279439;28;20036;-62
2023/06/08 11:40:11;;;;;;;1.92;1.52;;;;;;;29.30;19.46;96699.25;6286851;28;20036;-61
2023/06/08 11:43:14;;;;;;;3.25;1.48;;;;;;;29.36;19.57;96697.53;6284227;28;20044;-63
2023/06/08 11:46:23;;;;;;;2.08;1.88;;;;;;;29.46;19.08;96697.81;6285061;28;20089;-62
2023/06/08 11:49:24;;;;;;;2.35;2.00;;;;;;;29.37;19.60;96701.06;6283881;28;20051;-61
2023/06/08 11:52:27;;;;;;;2.05;1.45;;;;;;;29.00;19.91;96707.16;6277694;28;20419;-62
2023/06/08 11:55:31;;;;;;;4.53;1.60;;;;;;;28.81;20.26;96705.44;6282570;28;20036;-62
2023/06/08 11:58:39;;;;;;;2.58;1.67;;;;;;;28.56;20.21;96681.00;6286111;28;20040;-63
2023/06/08 12:01:55;;;;;;;3.90;1.90;;;;;;;28.67;20.13;96693.03;6285074;28;20424;-62
2023/06/08 12:05:00;;;;;;;2.67;1.65;;;;;;;28.55;19.79;96679.38;6287600;28;20040;-63
2023/06/08 12:08:11;;;;;;;3.85;1.52;;;;;;;28.18;20.28;96690.75;6287381;28;20053;-62
2023/06/08 12:11:17;;;;;;;2.53;1.77;;;;;;;27.31;20.81;96692.84;6283711;28;20181;-63
2023/06/08 12:14:26;;;;;;;7.97;1.92;;;;;;;26.27;22.06;96687.94;6284096;28;20411;-63
2023/06/08 12:17:32;;;;;;;2.55;1.45;;;;;;;25.67;22.94;96682.22;6279189;28;20037;-63
2023/06/08 12:20:37;;;;;;;4.20;1.85;;;;;;;25.37;23.82;96687.03;6284038;28;20043;-64
2023/06/08 12:23:38;;;;;;;3.42;2.00;;;;;;;25.28;24.12;96689.06;6278799;28;20522;-62
2023/06/08 12:26:45;;;;;;;4.57;1.50;;;;;;;25.32;24.09;96673.31;6282334;28;20059;-62
2023/06/08 12:29:51;;;;;;;2.70;1.92;;;;;;;26.03;23.10;96678.50;6283268;28;20052;-73
2023/06/08 12:32:58;;;;;;;3.90;1.90;;;;;;;27.01;22.38;96692.44;6284106;28;20048;-70
2023/06/08 12:36:03;;;;;;;5.30;2.22;;;;;;;27.16;21.96;96681.44;6290986;28;20469;-67
2023/06/08 12:39:10;;;;;;;3.45;2.20;;;;;;;27.00;21.99;96677.25;6284934;28;20063;-69
2023/06/08 12:42:15;;;;;;;4.03;2.10;;;;;;;26.92;22.34;96684.72;6286489;28;20059;-68
2023/06/08 12:45:22;;;;;;;2.70;1.83;;;;;;;26.75;22.32;96690.56;6288762;28;20455;-70
2023/06/08 12:48:24;;;;;;;3.38;1.98;;;;;;;26.50;22.29;96673.25;6290429;28;20135;-69
2023/06/08 12:51:25;;;;;;;3.15;2.60;;;;;;;26.23;23.29;96683.94;6288512;28;20127;-69
2023/06/08 12:54:32;;;;;;;3.22;2.88;;;;;;;25.56;24.08;96684.66;6288457;28;20036;-68
2023/06/08 12:57:36;;;;;;;4.88;2.30;;;;;;;24.93;24.84;96685.41;6287604;28;20041;-68
2023/06/08 13:00:41;;;;;;;6.25;2.25;;;;;;;24.51;25.22;96679.03;6283689;28;20055;-68
2023/06/08 13:03:45;;;;;;;5.75;2.00;;;;;;;24.18;26.03;96676.81;6279986;28;20116;-68
2023/06/08 13:06:49;;;;;;;2.40;2.20;;;;;;;24.08;26.05;96668.19;6287084;28;20109;-68
2023/06/08 13:09:57;;;;;;;3.95;2.00;;;;;;;24.42;25.32;96677.47;6280181;28;20056;-71
2023/06/08 13:13:02;;;;;;;3.95;2.75;;;;;;;24.96;24.77;96674.25;6272990;28;20040;-68
2023/06/08 13:16:05;;;;;;;3.22;2.33;;;;;;;25.54;24.11;96677.59;6275014;28;20040;-69
2023/06/08 13:19:11;;;;;;;4.03;2.55;;;;;;;25.92;23.49;96681.75;6279767;28;20044;-68
2023/06/08 13:22:15;;;;;;;3.17;2.30;;;;;;;25.90;23.60;96681.97;6285038;28;20143;-68
2023/06/08 13:25:16;;;;;;;8.70;5.22;;;;;;;25.55;24.35;96683.81;6289243;28;20045;-68
2023/06/08 13:28:20;;;;;;;4.45;3.10;;;;;;;25.01;24.64;96687.97;6287945;28;20028;-63
2023/06/08 13:31:26;;;;;;;4.18;3.03;;;;;;;24.60;25.21;96694.03;6281236;28;20052;-66
2023/06/08 13:34:33;;;;;;;8.35;3.30;;;;;;;24.22;26.36;96688.00;6279118;28;20044;-61
2023/06/08 13:37:34;;;;;;;4.43;2.65;;;;;;;24.25;26.25;96673.34;6280277;28;20044;-67
2023/06/08 13:40:39;;;;;;;2.95;2.40;;;;;;;24.27;26.50;96680.22;6284360;28;20127;-62
2023/06/08 13:43:47;;;;;;;4.57;2.70;;;;;;;24.19;26.49;96683.84;6281400;28;20044;-60
2023/06/08 13:46:50;;;;;;;3.53;2.75;;;;;;;24.12;27.32;96682.13;6283257;28;20047;-64
2023/06/08 13:49:56;;;;;;;4.45;3.03;;;;;;;24.46;26.14;96688.69;6286382;28;20051;-65
2023/06/08 13:53:00;;;;;;;3.30;2.65;;;;;;;24.56;26.40;96694.59;6279414;28;20506;-65
2023/06/08 13:56:02;;;;;;;4.55;2.80;;;;;;;24.49;26.18;96689.16;6279392;28;20082;-63
2023/06/08 13:59:06;;;;;;;12.57;3.08;;;;;;;24.35;26.77;96687.34;6280174;28;20491;-64
2023/06/08 14:02:10;;;;;;;3.80;3.05;;;;;;;24.10;26.51;96690.38;6284634;28;20044;-64
2023/06/08 14:05:19;;;;;;;4.57;3.10;;;;;;;23.94;27.25;96704.00;6289127;28;20040;-63
2023/06/08 14:08:26;;;;;;;4.50;3.20;;;;;;;23.77;27.42;96705.22;6288212;28;20037;-64
2023/06/08 14:11:30;;;;;;;6.53;3.50;;;;;;;23.45;28.06;96707.25;6280041;28;20048;-64
2023/06/08 14:14:31;;;;;;;5.85;3.85;;;;;;;23.24;28.07;96706.13;6277283;28;20051;-64
2023/06/08 14:17:33;;;;;;;5.50;3.08;;;;;;;23.04;28.35;96710.31;6277776;28;20109;-66
2023/06/08 14:20:38;;;;;;;7.95;3.60;;;;;;;22.96;28.54;96707.72;6280952;28;20045;-65
2023/06/08 14:23:45;;;;;;;6.50;3.33;;;;;;;23.02;29.00;96707.00;6276630;28;20052;-64
2023/06/08 14:26:46;;;;;;;6.00;3.60;;;;;;;23.13;28.69;96709.25;6273037;28;20534;-65
2023/06/08 14:29:49;;;;;;;7.05;3.65;;;;;;;23.28;28.61;96707.41;6279308;28;20426;-64
2023/06/08 14:32:51;;;;;;;6.95;3.95;;;;;;;23.36;28.66;96706.50;6280326;28;20037;-64
2023/06/08 14:35:52;;;;;;;5.65;3.70;;;;;;;23.52;28.43;96709.03;6274738;28;20053;-65
2023/06/08 14:39:02;;;;;;;5.70;3.80;;;;;;;23.66;28.44;96714.56;6276637;28;20501;-65